Goose Creek, SC (29445)

9:26 AM EST on December 28, 2014 (GMT -0500)
Goose Creek, SC US | Change Station
CLOSE
Current Station
Personal Weather Station
Location: Goose Creek, SC
Elevation: 39 ft
Nearby Weather Stations

Elev 39 ft 32.99 °N, 80.03 °W | Updated 0 second ago

Partly Cloudy
Partly Cloudy
61.2 °F
Feels Like 61.2 °F
N
1.1
Wind Variable Wind from WSW
Gusts 1.1 mph

Today
High -- | Low -- °F
--% Chance of Precip.
Yesterday
High -- | Low -- °F
Precip. -- in
7:21 AM 5:21 PM
Waxing Crescent, 48% visible
Pressure 30.16 in
Visibility 10.0 miles
Clouds Few 2200 ft
Scattered Clouds 3500 ft
Scattered Clouds 25000 ft
Dew Point 57 °F
Humidity 85%
Rainfall 0.00 in
Snow Depth Not available.
UV 0.5 out of 12
Pollen 1.70 out of 12
Air Quality Not available.
Flu Activity Not available.
METAR KCHS 281356Z 00000KT 10SM FEW022 SCT035 SCT250 14/12 A3016 RMK AO2 SLP211 T01440117

More Conditions Fewer Conditions

Pressure 30.16 in
Visibility 10.0 miles
Clouds Few 2200 ft
Scattered Clouds 3500 ft
Scattered Clouds 25000 ft
Dew Point 57 °F
Humidity 85%
Rainfall 0.00 in
Snow Depth Not available.
UV 0.5 out of 12
Pollen 1.70 out of 12
Air Quality Not available.
Flu Activity Not available.
METAR KCHS 281356Z 00000KT 10SM FEW022 SCT035 SCT250 14/12 A3016 RMK AO2 SLP211 T01440117

More Conditions Fewer Conditions

10-Day Weather Forecast

Almanac

Astronomy

Dec. 28, 2014 Rise Set
Actual Time
Civil Twilight
Nautical Twilight
Astronomical Twilight
Moon
Length of Visible Light
Length of Day
Tomorrow will be .
, % of the Moon is Illuminated

Today's Extremes

State Highs State Lows

Community

WunderPhotos

Upload Photos

1,781,270 photos uploaded!

WunderBlogs® & News

Nearby

Air Quality

  Air Quality AQ Index Pollutant
Not available.

Snow Depth

Station Depth Elevation

Earthquake Activity

City Distance Mag. Time & Date
Minimum magnitude displayed is 2.5.

Coastal Water Temperatures

Place Temperature

Nearby Weather Stations